Terminal Aerodrome Forecast
Issued by NWS

Home | Current Version | Previous Version | Graphics & Text | Print | Product List | Glossary On
Versions: 1 2 3 4 5 6 7 8 9 10 11 12 13 14 15 16 17 18 19 20 21 22 23
000
FTUS43 KGRB 242300
TAFRHI
TAF
KRHI 242325Z 2500/2524 09008KT P6SM VCSH SCT045 OVC070
      TEMPO 2500/2502 -SHRA
     FM250700 10006KT P6SM SCT040 OVC070
     FM251500 08013G21KT P6SM BKN070
     FM251900 07006KT P6SM SCT080=

USA.gov is the U.S. government's official web portal to all federal, state and local government web resources and services.